Time;durP1;ratioP1;P1;durP2;ratioP2;P2;SDS_P1;SDS_P2;PMS_P1;PMS_P2;Temp;Humidity;BMP_temperature;BMP_pressure;BME280_temperature;BME280_humidity;BME280_pressure;Samples;Min_cycle;Max_cycle;Signal;HPM_P1;HPM_P2
2023/09/21 00:01:54;;;;;;;;;;;;;;;14.13;77.33;100866.38;105646;1268;126377;-84
2023/09/21 00:04:22;;;;;;;;;;;;;;;14.10;77.39;100864.76;105540;1268;62123;-84
2023/09/21 00:06:49;;;;;;;;;;;;;;;14.09;77.46;100858.91;105688;1267;75651;-84
2023/09/21 00:09:16;;;;;;;;;;;;;;;14.08;77.43;100865.27;105526;1275;125305;-84
2023/09/21 00:11:43;;;;;;;;;;;;;;;14.07;77.57;100860.30;105703;1268;71555;-84
2023/09/21 00:14:10;;;;;;;;;;;;;;;14.06;77.52;100863.47;105651;1267;125108;-85
2023/09/21 00:16:40;;;;;;;;;;;;;;;14.04;77.50;100865.56;105617;1268;62010;-84
2023/09/21 00:19:10;;;;;;;;;;;;;;;14.03;77.64;100861.30;105847;1268;75497;-85
2023/09/21 00:21:37;;;;;;;;;;;;;;;14.03;77.73;100860.77;105641;1268;66584;-84
2023/09/21 00:24:05;;;;;;;;;;;;;;;14.02;77.74;100857.60;105726;1268;72714;-84
2023/09/21 00:26:34;;;;;;;;;;;;;;;14.00;77.74;100857.58;105637;1272;126708;-84
2023/09/21 00:29:03;;;;;;;;;;;;;;;13.97;77.79;100854.89;105743;1268;62108;-84
2023/09/21 00:31:30;;;;;;;;;;;;;;;13.95;77.81;100854.51;105486;1276;125458;-79
2023/09/21 00:33:58;;;;;;;;;;;;;;;13.93;77.89;100851.48;105677;1269;64999;-80
2023/09/21 00:36:25;;;;;;;;;;;;;;;13.92;78.06;100852.88;105780;1267;72697;-83
2023/09/21 00:38:55;;;;;;;;;;;;;;;13.92;78.15;100849.52;105527;1268;125156;-79
2023/09/21 00:41:21;;;;;;;;;;;;;;;13.91;78.12;100849.35;105570;1267;62118;-79
2023/09/21 00:43:50;;;;;;;;;;;;;;;13.90;78.18;100846.52;105758;1268;125649;-85
2023/09/21 00:46:17;;;;;;;;;;;;;;;13.90;78.39;100843.86;105561;1268;67071;-84
2023/09/21 00:48:43;;;;;;;;;;;;;;;13.90;78.39;100843.52;105748;1268;70683;-79
2023/09/21 00:51:11;;;;;;;;;;;;;;;13.89;78.44;100840.85;105573;1269;125104;-85
2023/09/21 00:53:39;;;;;;;;;;;;;;;13.89;78.54;100840.31;105867;1268;61982;-85
2023/09/21 00:56:09;;;;;;;;;;;;;;;13.87;78.47;100835.70;105671;1268;125174;-84
2023/09/21 00:58:36;;;;;;;;;;;;;;;13.85;78.42;100834.25;105777;1267;66277;-85
2023/09/21 01:01:05;;;;;;;;;;;;;;;13.84;78.53;100830.90;105852;1271;71472;-84
2023/09/21 01:03:37;;;;;;;;;;;;;;;13.84;78.69;100834.25;105622;1268;125144;-85
2023/09/21 01:06:11;;;;;;;;;;;;;;;13.84;78.61;100835.48;105715;1273;62066;-84
2023/09/21 01:08:38;;;;;;;;;;;;;;;13.83;78.67;100833.70;105694;1270;125548;-83
2023/09/21 01:11:08;;;;;;;;;;;;;;;13.80;78.67;100836.50;105716;1268;60076;-83
2023/09/21 01:13:35;;;;;;;;;;;;;;;13.77;78.64;100829.39;105520;1268;125307;-84
2023/09/21 01:16:03;;;;;;;;;;;;;;;13.73;78.65;100833.24;105686;1268;60094;-85
2023/09/21 01:18:30;;;;;;;;;;;;;;;13.69;78.56;100828.41;105731;1268;62087;-85
2023/09/21 01:21:05;;;;;;;;;;;;;;;13.67;78.79;100830.15;105519;1268;125451;-85
2023/09/21 01:23:34;;;;;;;;;;;;;;;13.65;78.88;100828.19;105731;1271;66320;-85
2023/09/21 01:26:02;;;;;;;;;;;;;;;13.60;78.72;100820.71;105662;1267;125273;-85
2023/09/21 01:28:29;;;;;;;;;;;;;;;13.58;78.80;100823.15;105678;1270;62180;-83
2023/09/21 01:30:56;;;;;;;;;;;;;;;13.55;78.87;100825.56;105740;1269;62081;-83
2023/09/21 01:33:23;;;;;;;;;;;;;;;13.52;78.90;100826.77;105742;1268;125340;-83
2023/09/21 01:35:49;;;;;;;;;;;;;;;13.51;78.97;100827.83;105839;1268;65093;-84
2023/09/21 01:38:17;;;;;;;;;;;;;;;13.49;79.10;100821.96;105606;1267;124273;-83
2023/09/21 01:40:43;;;;;;;;;;;;;;;13.49;79.15;100821.27;105778;1268;61988;-83
2023/09/21 01:43:14;;;;;;;;;;;;;;;13.47;79.03;100822.29;105520;1268;125300;-81
2023/09/21 01:45:42;;;;;;;;;;;;;;;13.45;79.04;100823.66;105728;1268;73513;-84
2023/09/21 01:48:09;;;;;;;;;;;;;;;13.44;79.20;100826.30;105742;1268;66306;-84
2023/09/21 01:50:43;;;;;;;;;;;;;;;13.43;79.33;100833.16;105541;1268;125353;-84
2023/09/21 01:53:09;;;;;;;;;;;;;;;13.41;79.27;100827.48;105823;1270;62520;-84
2023/09/21 01:55:36;;;;;;;;;;;;;;;13.38;79.22;100822.52;105530;1270;126603;-84
2023/09/21 01:58:04;;;;;;;;;;;;;;;13.35;79.33;100819.11;105783;1272;75675;-85
2023/09/21 02:00:34;;;;;;;;;;;;;;;13.34;79.44;100815.05;105786;1268;65104;-84
2023/09/21 02:03:05;;;;;;;;;;;;;;;13.33;79.40;100813.10;105720;1268;125336;-84
2023/09/21 02:05:33;;;;;;;;;;;;;;;13.31;79.36;100810.77;105919;1267;62091;-84
2023/09/21 02:08:00;;;;;;;;;;;;;;;13.28;79.39;100811.94;105539;1267;125800;-84
2023/09/21 02:10:27;;;;;;;;;;;;;;;13.27;79.55;100814.20;105707;1270;74244;-82
2023/09/21 02:12:57;;;;;;;;;;;;;;;13.27;79.65;100808.39;105868;1268;65098;-84
2023/09/21 02:15:24;;;;;;;;;;;;;;;13.24;79.57;100807.64;105536;1267;125500;-84
2023/09/21 02:17:52;;;;;;;;;;;;;;;13.23;79.64;100813.44;105695;1272;62036;-83
2023/09/21 02:20:20;;;;;;;;;;;;;;;13.20;79.67;100811.11;105492;1273;125376;-84
2023/09/21 02:22:47;;;;;;;;;;;;;;;13.19;79.62;100812.67;105847;1268;75472;-84
2023/09/21 02:25:14;;;;;;;;;;;;;;;13.17;79.70;100805.23;105689;1268;125615;-83
2023/09/21 02:27:41;;;;;;;;;;;;;;;13.14;79.67;100802.38;105832;1271;71078;-84
2023/09/21 02:30:16;;;;;;;;;;;;;;;13.12;79.57;100799.54;105722;1268;60134;-84
2023/09/21 02:32:43;;;;;;;;;;;;;;;13.11;79.65;100799.52;105540;1272;125868;-84
2023/09/21 02:35:11;;;;;;;;;;;;;;;13.10;79.78;100800.20;105499;1273;74048;-86
2023/09/21 02:37:38;;;;;;;;;;;;;;;13.10;79.92;100798.25;105943;1267;125429;-83
2023/09/21 02:40:08;;;;;;;;;;;;;;;13.10;79.88;100794.21;105716;1268;72696;-84
2023/09/21 02:42:35;;;;;;;;;;;;;;;13.10;79.95;100794.22;105804;1267;62204;-84
2023/09/21 02:45:02;;;;;;;;;;;;;;;13.09;80.08;100792.77;105671;1270;125124;-84
2023/09/21 02:47:30;;;;;;;;;;;;;;;13.08;79.98;100792.95;105752;1269;75595;-84
2023/09/21 02:49:57;;;;;;;;;;;;;;;13.07;79.99;100789.77;105644;1267;125152;-84
2023/09/21 02:52:24;;;;;;;;;;;;;;;13.05;80.04;100794.33;105886;1268;71403;-85
2023/09/21 02:54:53;;;;;;;;;;;;;;;13.04;80.07;100791.48;105809;1268;62176;-84
2023/09/21 02:57:19;;;;;;;;;;;;;;;13.03;80.09;100788.30;105687;1268;125171;-84
2023/09/21 02:59:46;;;;;;;;;;;;;;;13.00;79.98;100783.85;105707;1268;74250;-85
2023/09/21 03:02:12;;;;;;;;;;;;;;;12.97;79.91;100780.64;105469;1268;125516;-85
2023/09/21 03:04:39;;;;;;;;;;;;;;;12.96;79.94;100782.91;105692;1268;72801;-82
2023/09/21 03:07:05;;;;;;;;;;;;;;;12.95;80.10;100782.20;105625;1268;62047;-83
2023/09/21 03:09:32;;;;;;;;;;;;;;;12.96;80.13;100780.78;105457;1268;125019;-85
2023/09/21 03:11:59;;;;;;;;;;;;;;;12.95;80.13;100777.09;105773;1268;75639;-84
2023/09/21 03:14:28;;;;;;;;;;;;;;;12.94;80.13;100778.30;105616;1273;126450;-85
2023/09/21 03:16:55;;;;;;;;;;;;;;;12.92;80.12;100774.73;105575;1268;71430;-86
2023/09/21 03:19:24;;;;;;;;;;;;;;;12.90;80.07;100771.88;105613;1268;125439;-83
2023/09/21 03:21:51;;;;;;;;;;;;;;;12.88;80.22;100767.98;105775;1268;62184;-84
2023/09/21 03:24:18;;;;;;;;;;;;;;;12.88;80.24;100766.58;105818;1267;75510;-84
2023/09/21 03:26:45;;;;;;;;;;;;;;;12.87;80.31;100769.55;105650;1268;125685;-84
2023/09/21 03:29:11;;;;;;;;;;;;;;;12.86;80.29;100769.18;105827;1268;73230;-84
2023/09/21 03:31:38;;;;;;;;;;;;;;;12.85;80.28;100768.81;105411;1270;125371;-84
2023/09/21 03:34:05;;;;;;;;;;;;;;;12.87;80.49;100771.14;105753;1268;61232;-84
2023/09/21 03:36:36;;;;;;;;;;;;;;;12.88;80.52;100767.10;105625;1273;75244;-83
2023/09/21 03:39:09;;;;;;;;;;;;;;;12.86;80.51;100770.06;105744;1267;125347;-82
2023/09/21 03:41:36;;;;;;;;;;;;;;;12.86;80.54;100766.89;105635;1273;72737;-82
2023/09/21 03:44:05;;;;;;;;;;;;;;;12.86;80.57;100762.67;105556;1273;125211;-83
2023/09/21 03:46:31;;;;;;;;;;;;;;;12.82;80.47;100766.31;105846;1267;61995;-82
2023/09/21 03:48:58;;;;;;;;;;;;;;;12.79;80.45;100760.61;105861;1273;75492;-82
2023/09/21 03:51:25;;;;;;;;;;;;;;;12.76;80.38;100756.52;105652;1268;125229;-80
2023/09/21 03:53:53;;;;;;;;;;;;;;;12.74;80.35;100758.07;105693;1272;70656;-81
2023/09/21 03:56:19;;;;;;;;;;;;;;;12.72;80.54;100763.84;105615;1273;125808;-80
2023/09/21 03:58:46;;;;;;;;;;;;;;;12.72;80.65;100761.56;105764;1273;60370;-78
2023/09/21 04:01:13;;;;;;;;;;;;;;;12.72;80.47;100757.33;105117;1268;125775;-81
2023/09/21 04:03:42;;;;;;;;;;;;;;;12.69;80.50;100752.35;105461;1267;65193;-78
2023/09/21 04:06:09;;;;;;;;;;;;;;;12.66;80.49;100747.20;105836;1268;72857;-79
2023/09/21 04:08:36;;;;;;;;;;;;;;;12.64;80.57;100744.36;105515;1270;125126;-79
2023/09/21 04:11:03;;;;;;;;;;;;;;;12.62;80.52;100742.56;105719;1268;62078;-79
2023/09/21 04:13:29;;;;;;;;;;;;;;;12.60;80.41;100740.76;105512;1268;125618;-79
2023/09/21 04:15:56;;;;;;;;;;;;;;;12.57;80.46;100744.08;105717;1268;61994;-79
2023/09/21 04:18:22;;;;;;;;;;;;;;;12.57;80.55;100745.11;105733;1267;72675;-79
2023/09/21 04:20:49;;;;;;;;;;;;;;;12.57;80.62;100742.65;105832;1272;125178;-80
2023/09/21 04:23:15;;;;;;;;;;;;;;;12.56;80.60;100742.65;105652;1268;60707;-79
2023/09/21 04:25:44;;;;;;;;;;;;;;;12.55;80.63;100747.54;105558;1272;125406;-81
2023/09/21 04:28:11;;;;;;;;;;;;;;;12.54;80.68;100745.61;105013;1268;64685;-81
2023/09/21 04:30:37;;;;;;;;;;;;;;;12.54;80.66;100750.36;105552;1267;72924;-80
2023/09/21 04:33:04;;;;;;;;;;;;;;;12.53;80.69;100743.83;105563;1268;126503;-79
2023/09/21 04:35:31;;;;;;;;;;;;;;;12.52;80.63;100741.17;105762;1270;62165;-82
2023/09/21 04:37:58;;;;;;;;;;;;;;;12.56;80.81;100745.11;105601;1268;125762;-79
2023/09/21 04:40:26;;;;;;;;;;;;;;;12.73;81.19;100749.08;105701;1272;66836;-79
2023/09/21 04:42:53;;;;;;;;;;;;;;;12.93;81.14;100749.04;105714;1268;71423;-80
2023/09/21 04:45:20;;;;;;;;;;;;;;;13.10;80.85;100747.36;105664;1271;125844;-82
2023/09/21 04:47:47;;;;;;;;;;;;;;;13.19;80.39;100742.20;105680;1268;62100;-79
2023/09/21 04:50:16;;;;;;;;;;;;;;;13.25;80.19;100740.16;105632;1268;125457;-81
2023/09/21 04:52:43;;;;;;;;;;;;;;;13.31;80.05;100741.69;105488;1276;65021;-80
2023/09/21 04:55:10;;;;;;;;;;;;;;;13.36;80.01;100740.17;105489;1271;125479;-81
2023/09/21 04:57:37;;;;;;;;;;;;;;;13.44;79.88;100737.98;106755;1268;62104;-79
2023/09/21 05:00:06;;;;;;;;;;;;;;;13.50;79.83;100739.83;105690;1272;62069;-79
2023/09/21 05:02:33;;;;;;;;;;;;;;;13.61;79.74;100737.31;105692;1270;126432;-84
2023/09/21 05:05:00;;;;;;;;;;;;;;;13.68;79.68;100738.11;105946;1267;66292;-84
2023/09/21 05:07:27;;;;;;;;;;;;;;;13.73;79.69;100731.65;105768;1272;126020;-82
2023/09/21 05:09:53;;;;;;;;;;;;;;;13.76;79.58;100726.05;105933;1268;62231;-82
2023/09/21 05:12:20;;;;;;;;;;;;;;;13.81;79.47;100719.90;105908;1268;62160;-82
2023/09/21 05:14:47;;;;;;;;;;;;;;;13.83;79.37;100720.11;105861;1268;125237;-80
2023/09/21 05:17:14;;;;;;;;;;;;;;;13.84;79.36;100716.77;106027;1267;66172;-81
2023/09/21 05:19:44;;;;;;;;;;;;;;;13.85;79.41;100719.44;106032;1264;125601;-81
2023/09/21 05:22:10;;;;;;;;;;;;;;;13.90;79.39;100721.61;106135;1264;62156;-81
2023/09/21 05:24:37;;;;;;;;;;;;;;;13.93;79.37;100725.00;106481;1264;62049;-82
2023/09/21 05:27:03;;;;;;;;;;;;;;;13.97;79.52;100726.98;106235;1264;125245;-81
2023/09/21 05:29:30;;;;;;;;;;;;;;;14.06;79.61;100727.07;106362;1265;64931;-81
2023/09/21 05:31:57;;;;;;;;;;;;;;;14.11;79.63;100728.89;106023;1265;125653;-81
2023/09/21 05:34:27;;;;;;;;;;;;;;;14.17;79.60;100727.19;106261;1266;62705;-81
2023/09/21 05:36:54;;;;;;;;;;;;;;;14.25;79.74;100728.66;106892;1265;62329;-81
2023/09/21 05:39:21;;;;;;;;;;;;;;;14.32;79.67;100723.45;105982;1270;124199;-81
2023/09/21 05:41:47;;;;;;;;;;;;;;;14.41;79.77;100728.99;105998;1264;65093;-81
2023/09/21 05:44:14;;;;;;;;;;;;;;;14.46;79.62;100729.74;105976;1268;125906;-81
2023/09/21 05:46:41;;;;;;;;;;;;;;;14.51;79.65;100730.49;105961;1264;62077;-80
2023/09/21 05:49:11;;;;;;;;;;;;;;;14.59;79.71;100730.23;106022;1265;61989;-80
2023/09/21 05:51:39;;;;;;;;;;;;;;;14.65;79.50;100727.81;105821;1270;74804;-81
2023/09/21 05:54:09;;;;;;;;;;;;;;;14.70;79.53;100731.91;106222;1264;66329;-81
2023/09/21 05:56:36;;;;;;;;;;;;;;;14.77;79.58;100731.45;106289;1269;126298;-80
2023/09/21 05:59:03;;;;;;;;;;;;;;;14.87;79.66;100728.86;106227;1264;62125;-80
2023/09/21 06:01:31;;;;;;;;;;;;;;;14.96;79.61;100728.39;106164;1265;125608;-81
2023/09/21 06:03:59;;;;;;;;;;;;;;;15.03;79.65;100730.73;106222;1265;75546;-81
2023/09/21 06:06:28;;;;;;;;;;;;;;;15.11;79.67;100728.14;106392;1264;65044;-81
2023/09/21 06:08:56;;;;;;;;;;;;;;;15.16;79.56;100727.27;106094;1269;125188;-81
2023/09/21 06:11:23;;;;;;;;;;;;;;;15.24;79.52;100728.74;105734;1264;62076;-81
2023/09/21 06:13:50;;;;;;;;;;;;;;;15.30;79.49;100726.30;105890;1269;125893;-81
2023/09/21 06:16:17;;;;;;;;;;;;;;;15.37;79.54;100730.39;105837;1265;74152;-82
2023/09/21 06:18:44;;;;;;;;;;;;;;;15.45;79.40;100733.80;105945;1265;66325;-81
2023/09/21 06:21:11;;;;;;;;;;;;;;;15.52;79.39;100731.54;105766;1267;126845;-81
2023/09/21 06:23:37;;;;;;;;;;;;;;;15.62;79.46;100731.92;105814;1267;61950;-81
2023/09/21 06:26:04;;;;;;;;;;;;;;;15.71;79.39;100730.36;105931;1264;125371;-81
2023/09/21 06:28:31;;;;;;;;;;;;;;;15.80;79.24;100729.38;105869;1270;74855;-81
2023/09/21 06:31:02;;;;;;;;;;;;;;;15.88;79.28;100728.16;107094;1264;66149;-81
2023/09/21 06:33:29;;;;;;;;;;;;;;;15.98;79.24;100726.06;105975;1264;125465;-81
2023/09/21 06:35:55;;;;;;;;;;;;;;;16.07;79.23;100722.72;105899;1264;62074;-79
2023/09/21 06:38:22;;;;;;;;;;;;;;;16.16;79.12;100717.77;105625;1265;125367;-81
2023/09/21 06:40:48;;;;;;;;;;;;;;;16.24;78.95;100720.09;105923;1270;74662;-81
2023/09/21 06:43:15;;;;;;;;;;;;;;;16.31;78.78;100717.79;105958;1265;124606;-81
2023/09/21 06:45:42;;;;;;;;;;;;;;;16.38;78.75;100717.63;105924;1269;71502;-81
2023/09/21 06:48:11;;;;;;;;;;;;;;;16.45;78.59;100711.95;105970;1265;62061;-81
2023/09/21 06:50:40;;;;;;;;;;;;;;;16.50;78.45;100711.79;105933;1265;124670;-81
2023/09/21 06:53:07;;;;;;;;;;;;;;;16.56;78.44;100717.11;105847;1265;75509;-81
2023/09/21 06:55:34;;;;;;;;;;;;;;;16.64;78.39;100722.59;105828;1264;126411;-82
2023/09/21 06:58:01;;;;;;;;;;;;;;;16.73;78.29;100718.69;105886;1269;72774;-82
2023/09/21 07:00:27;;;;;;;;;;;;;;;16.81;78.24;100712.30;105914;1267;62200;-82
2023/09/21 07:02:54;;;;;;;;;;;;;;;16.88;78.05;100712.33;105683;1264;124860;-81
2023/09/21 07:05:21;;;;;;;;;;;;;;;16.94;77.90;100709.65;105807;1265;75181;-82
2023/09/21 07:07:47;;;;;;;;;;;;;;;16.98;77.70;100710.70;105882;1269;124786;-81
2023/09/21 07:10:16;;;;;;;;;;;;;;;17.02;77.72;100714.95;105946;1264;60306;-81
2023/09/21 07:12:42;;;;;;;;;;;;;;;17.10;77.77;100716.36;105975;1269;61972;-82
2023/09/21 07:15:09;;;;;;;;;;;;;;;17.18;77.84;100714.02;105910;1269;125516;-81
2023/09/21 07:17:36;;;;;;;;;;;;;;;17.29;77.95;100715.23;105968;1264;75621;-80
2023/09/21 07:20:06;;;;;;;;;;;;;;;17.41;77.99;100710.76;105835;1264;125408;-81
2023/09/21 07:22:33;;;;;;;;;;;;;;;17.55;77.93;100709.83;106041;1270;72608;-81
2023/09/21 07:24:59;;;;;;;;;;;;;;;17.68;77.91;100707.81;106048;1265;61957;-80
2023/09/21 07:27:26;;;;;;;;;;;;;;;17.81;77.73;100705.98;105837;1264;125549;-81
2023/09/21 07:29:55;;;;;;;;;;;;;;;17.94;77.53;100699.02;105894;1265;75572;-80
2023/09/21 07:32:28;;;;;;;;;;;;;;;18.06;77.28;100696.98;106468;1264;127040;-83
2023/09/21 07:34:55;;;;;;;;;;;;;;;18.18;77.05;100697.95;106005;1283;72524;-80
2023/09/21 07:37:21;;;;;;;;;;;;;;;18.30;76.88;100696.98;105887;1265;125434;-81
2023/09/21 07:39:48;;;;;;;;;;;;;;;18.42;76.66;100697.23;105994;1264;62095;-81
2023/09/21 07:42:15;;;;;;;;;;;;;;;18.53;76.42;100692.52;105954;1264;75428;-80
2023/09/21 07:44:44;;;;;;;;;;;;;;;18.65;76.11;100691.52;105735;1267;248946;-80
2023/09/21 07:47:10;;;;;;;;;;;;;;;18.76;75.99;100690.55;106004;1264;72718;-80
2023/09/21 07:49:37;;;;;;;;;;;;;;;18.87;75.78;100688.86;105845;1265;125468;-81
2023/09/21 07:52:03;;;;;;;;;;;;;;;18.97;75.58;100686.45;105967;1269;61988;-81
2023/09/21 07:54:31;;;;;;;;;;;;;;;19.08;75.37;100685.09;105813;1267;75263;-80
2023/09/21 07:56:59;;;;;;;;;;;;;;;19.20;75.13;100683.00;105830;1266;125795;-80
2023/09/21 07:59:25;;;;;;;;;;;;;;;19.29;74.89;100680.75;105875;1265;71394;-80
2023/09/21 08:01:53;;;;;;;;;;;;;;;19.37;74.60;100678.16;105821;1265;125332;-80
2023/09/21 08:04:20;;;;;;;;;;;;;;;19.47;74.61;100675.90;105994;1270;62101;-82
2023/09/21 08:06:47;;;;;;;;;;;;;;;19.56;74.19;100675.61;106012;1265;75523;-81
2023/09/21 08:09:14;;;;;;;;;;;;;;;19.63;73.87;100672.66;105852;1269;124438;-79
2023/09/21 08:11:41;;;;;;;;;;;;;;;19.72;73.81;100673.63;105944;1264;72722;-80
2023/09/21 08:14:07;;;;;;;;;;;;;;;19.82;73.74;100666.56;105760;1270;124495;-81
2023/09/21 08:16:35;;;;;;;;;;;;;;;19.93;73.59;100670.50;105789;1267;62154;-81
2023/09/21 08:19:02;;;;;;;;;;;;;;;20.00;73.29;100665.21;106027;1264;74651;-81
2023/09/21 08:21:30;;;;;;;;;;;;;;;20.08;73.05;100661.20;105666;1270;125380;-81
2023/09/21 08:23:56;;;;;;;;;;;;;;;20.15;72.94;100660.01;105903;1270;71470;-81
2023/09/21 08:26:23;;;;;;;;;;;;;;;20.23;72.79;100654.36;105744;1269;125107;-81
2023/09/21 08:28:50;;;;;;;;;;;;;;;20.31;72.63;100654.94;105802;1265;62117;-81
2023/09/21 08:31:19;;;;;;;;;;;;;;;20.38;72.39;100652.85;105846;1265;125119;-80
2023/09/21 08:33:46;;;;;;;;;;;;;;;20.48;72.17;100652.15;105884;1267;65018;-81
2023/09/21 08:36:15;;;;;;;;;;;;;;;20.56;71.84;100651.13;105928;1265;62113;-81
2023/09/21 08:38:42;;;;;;;;;;;;;;;20.62;71.45;100650.52;105846;1264;124445;-81
2023/09/21 08:41:08;;;;;;;;;;;;;;;20.68;71.15;100648.27;105902;1269;62111;-81
2023/09/21 08:43:35;;;;;;;;;;;;;;;20.75;71.08;100646.34;105713;1271;125337;-82
2023/09/21 08:46:02;;;;;;;;;;;;;;;20.83;70.75;100647.98;105909;1269;64791;-82
2023/09/21 08:48:28;;;;;;;;;;;;;;;20.91;70.42;100647.98;105849;1270;71542;-81
2023/09/21 08:50:55;;;;;;;;;;;;;;;21.00;70.20;100646.05;105776;1265;126794;-80
2023/09/21 08:53:22;;;;;;;;;;;;;;;21.09;69.95;100643.55;105882;1266;62229;-81
2023/09/21 08:55:49;;;;;;;;;;;;;;;21.19;69.75;100640.67;105815;1265;125730;-81
2023/09/21 08:58:26;;;;;;;;;;;;;;;21.29;69.62;100636.17;105947;1265;64790;-79
2023/09/21 09:00:56;;;;;;;;;;;;;;;21.38;69.65;100633.30;105910;1269;71847;-81
2023/09/21 09:03:26;;;;;;;;;;;;;;;21.46;69.22;100631.90;105820;1269;125195;-80
2023/09/21 09:05:58;;;;;;;;;;;;;;;21.53;69.03;100629.27;105922;1265;62171;-82
2023/09/21 09:08:25;;;;;;;;;;;;;;;21.62;69.11;100627.11;105833;1265;126353;-81
2023/09/21 09:10:53;;;;;;;;;;;;;;;21.71;68.64;100624.94;105693;1270;64762;-81
2023/09/21 09:13:20;;;;;;;;;;;;;;;21.80;68.54;100618.13;105795;1270;125016;-81
2023/09/21 09:15:47;;;;;;;;;;;;;;;21.87;68.02;100616.16;105868;1264;60366;-82
2023/09/21 09:18:14;;;;;;;;;;;;;;;21.95;68.22;100614.71;106055;1267;61995;-81
2023/09/21 09:20:42;;;;;;;;;;;;;;;22.06;68.09;100610.19;105941;1266;124069;-81
2023/09/21 09:23:10;;;;;;;;;;;;;;;22.15;67.76;100610.66;106726;1269;66318;-80
2023/09/21 09:25:37;;;;;;;;;;;;;;;22.22;67.34;100603.70;105829;1265;125519;-80
2023/09/21 09:28:04;;;;;;;;;;;;;;;22.28;67.12;100599.45;105931;1265;60602;-80
2023/09/21 09:30:30;;;;;;;;;;;;;;;22.34;66.54;100596.98;105960;1265;62204;-81
2023/09/21 09:32:57;;;;;;;;;;;;;;;22.38;66.38;100594.02;105818;1268;124617;-82
2023/09/21 09:35:24;;;;;;;;;;;;;;;22.42;66.37;100592.82;105679;1273;62053;-80
2023/09/21 09:37:51;;;;;;;;;;;;;;;22.48;66.19;100590.02;105828;1265;124771;-81
2023/09/21 09:40:23;;;;;;;;;;;;;;;22.52;66.12;100589.90;105907;1270;62551;-80
2023/09/21 09:42:51;;;;;;;;;;;;;;;22.57;65.92;100584.04;105857;1265;61953;-82
2023/09/21 09:45:19;;;;;;;;;;;;;;;22.63;65.93;100585.83;105666;1270;125892;-82
2023/09/21 09:47:51;;;;;;;;;;;;;;;22.71;65.85;100585.80;105926;1269;66005;-81
2023/09/21 09:50:20;;;;;;;;;;;;;;;22.79;65.97;100578.41;105597;1273;125189;-81
2023/09/21 09:52:48;;;;;;;;;;;;;;;22.88;65.75;100573.15;105806;1265;62118;-80
2023/09/21 09:55:15;;;;;;;;;;;;;;;22.97;65.44;100570.75;105857;1265;126402;-80
2023/09/21 09:57:41;;;;;;;;;;;;;;;23.04;65.30;100568.21;106000;1264;75202;-81
2023/09/21 10:00:15;;;;;;;;;;;;;;;23.16;65.02;100563.08;105968;1269;65385;-80
2023/09/21 10:02:43;;;;;;;;;;;;;;;23.23;64.89;100560.16;105710;1271;124412;-82
2023/09/21 10:05:10;;;;;;;;;;;;;;;23.29;64.52;100558.02;105826;1269;60139;-81
2023/09/21 10:07:37;;;;;;;;;;;;;;;23.33;64.46;100551.27;105761;1269;124699;-81
2023/09/21 10:10:04;;;;;;;;;;;;;;;23.38;64.40;100556.48;105758;1270;75486;-80
2023/09/21 10:12:32;;;;;;;;;;;;;;;23.44;64.14;100550.54;105954;1265;66330;-81
2023/09/21 10:15:01;;;;;;;;;;;;;;;23.49;63.85;100548.96;105760;1265;125056;-80
2023/09/21 10:17:31;;;;;;;;;;;;;;;23.54;63.55;100552.39;105832;1265;62246;-81
2023/09/21 10:20:18;;;;;;;;;;;;;;;23.58;63.35;100544.73;105918;1270;124436;-80
2023/09/21 10:22:44;;;;;;;;;;;;;;;23.60;63.22;100536.59;105867;1269;75391;-81
2023/09/21 10:25:12;;;;;;;;;;;;;;;23.63;62.96;100535.95;106052;1265;65077;-82
2023/09/21 10:27:39;;;;;;;;;;;;;;;23.68;62.90;100530.29;106017;1269;71401;-82
2023/09/21 10:30:15;;;;;;;;;;;;;;;23.73;62.95;100530.81;105741;1267;62400;-81
2023/09/21 10:32:47;;;;;;;;;;;;;;;23.77;62.53;100529.26;105873;1265;124707;-81
2023/09/21 10:35:18;;;;;;;;;;;;;;;23.80;62.40;100528.84;105804;1265;75270;-81
2023/09/21 10:37:49;;;;;;;;;;;;;;;23.84;62.47;100526.91;105852;1265;125284;-81
2023/09/21 10:40:24;;;;;;;;;;;;;;;23.88;62.26;100524.11;105730;1264;72763;-81
2023/09/21 10:42:51;;;;;;;;;;;;;;;23.90;62.12;100525.42;105757;1265;60395;-82
2023/09/21 10:45:18;;;;;;;;;;;;;;;23.93;62.15;100524.46;105745;1273;124903;-80
2023/09/21 10:47:48;;;;;;;;;;;;;;;23.96;61.88;100522.40;105790;1267;75958;-80
2023/09/21 10:50:16;;;;;;;;;;;;;;;23.99;61.64;100524.06;105687;1271;125512;-81
2023/09/21 10:52:43;;;;;;;;;;;;;;;24.04;61.78;100509.55;105955;1265;71412;-81
2023/09/21 10:55:12;;;;;;;;;;;;;;;24.10;61.55;100510.98;105996;1265;60039;-81
2023/09/21 10:57:39;;;;;;;;;;;;;;;24.13;61.41;100507.98;105982;1267;62027;-81
2023/09/21 11:00:10;;;;;;;;;;;;;;;24.17;61.31;100502.65;105970;1267;75464;-81
2023/09/21 11:02:38;;;;;;;;;;;;;;;24.21;61.13;100497.86;105871;1268;125271;-81
2023/09/21 11:05:09;;;;;;;;;;;;;;;24.24;60.82;100495.79;105822;1273;72554;-81
2023/09/21 11:07:36;;;;;;;;;;;;;;;24.26;60.79;100497.13;105849;1267;124946;-81
2023/09/21 11:10:06;;;;;;;;;;;;;;;24.29;60.68;100495.23;105939;1269;62076;-81
2023/09/21 11:12:33;;;;;;;;;;;;;;;24.31;60.49;100489.80;105969;1269;75543;-81
2023/09/21 11:15:00;;;;;;;;;;;;;;;24.33;60.37;100484.88;105791;1268;125488;-81
2023/09/21 11:17:28;;;;;;;;;;;;;;;24.35;60.20;100482.83;105718;1270;72749;-81
2023/09/21 11:19:55;;;;;;;;;;;;;;;24.36;60.09;100477.23;105805;1269;124862;-81
2023/09/21 11:22:22;;;;;;;;;;;;;;;24.38;59.81;100475.55;105920;1269;61759;-82
2023/09/21 11:24:48;;;;;;;;;;;;;;;24.41;59.86;100473.64;105973;1269;75562;-82
2023/09/21 11:27:15;;;;;;;;;;;;;;;24.45;59.74;100472.77;105612;1271;124918;-81
2023/09/21 11:29:42;;;;;;;;;;;;;;;24.50;59.80;100469.02;105882;1269;72727;-81
2023/09/21 11:32:11;;;;;;;;;;;;;;;24.55;59.74;100469.40;105677;1265;124468;-81
2023/09/21 11:34:39;;;;;;;;;;;;;;;24.59;59.34;100460.25;106448;1265;62187;-81
2023/09/21 11:37:07;;;;;;;;;;;;;;;24.62;59.20;100452.27;105982;1267;74218;-81
2023/09/21 11:39:35;;;;;;;;;;;;;;;24.63;59.24;100450.77;105932;1270;124479;-81
2023/09/21 11:42:01;;;;;;;;;;;;;;;24.66;58.96;100446.75;106048;1268;72737;-81
2023/09/21 11:44:28;;;;;;;;;;;;;;;24.67;58.76;100443.98;105841;1270;124423;-82
2023/09/21 11:46:57;;;;;;;;;;;;;;;24.70;58.82;100440.67;105899;1267;61979;-81
2023/09/21 11:49:37;;;;;;;;;;;;;;;24.72;58.74;100444.36;106646;1267;125071;-81
2023/09/21 11:52:03;;;;;;;;;;;;;;;24.76;58.85;100442.02;105970;1267;66255;-80
2023/09/21 11:54:31;;;;;;;;;;;;;;;24.81;58.81;100436.62;105906;1268;71548;-82
2023/09/21 11:56:57;;;;;;;;;;;;;;;24.88;58.63;100433.88;105631;1267;124641;-82
2023/09/21 11:59:24;;;;;;;;;;;;;;;24.92;58.50;100434.59;105703;1267;60219;-82
2023/09/21 12:01:51;;;;;;;;;;;;;;;24.96;58.44;100431.21;105890;1265;124869;-81
2023/09/21 12:04:18;;;;;;;;;;;;;;;25.00;58.19;100427.09;105837;1268;64898;-82
2023/09/21 12:06:44;;;;;;;;;;;;;;;25.02;58.05;100424.85;105886;1268;71363;-81
2023/09/21 12:09:13;;;;;;;;;;;;;;;25.04;58.02;100421.17;105791;1270;124624;-80
2023/09/21 12:11:39;;;;;;;;;;;;;;;25.05;57.89;100414.88;105832;1267;62091;-82
2023/09/21 12:14:06;;;;;;;;;;;;;;;25.07;57.81;100414.08;105790;1269;124458;-81
2023/09/21 12:16:35;;;;;;;;;;;;;;;25.09;57.65;100404.30;105711;1265;62139;-79
2023/09/21 12:19:01;;;;;;;;;;;;;;;25.12;57.45;100407.40;105716;1267;72504;-82
2023/09/21 12:21:30;;;;;;;;;;;;;;;25.16;57.48;100408.48;105886;1267;124532;-80
2023/09/21 12:23:58;;;;;;;;;;;;;;;25.19;57.27;100409.62;106033;1265;61936;-79
2023/09/21 12:26:25;;;;;;;;;;;;;;;25.23;57.34;100408.77;105808;1267;125373;-82